sensor_id;sensor_type;location;lat;lon;timestamp;temperature;humidity
2867;DHT22;1441;48.886;8.728;2023-04-25T00:01:37;8.90;98.00
2867;DHT22;1441;48.886;8.728;2023-04-25T00:04:03;8.90;97.60
2867;DHT22;1441;48.886;8.728;2023-04-25T00:06:32;8.90;97.70
2867;DHT22;1441;48.886;8.728;2023-04-25T00:08:58;8.80;97.50
2867;DHT22;1441;48.886;8.728;2023-04-25T00:11:23;8.80;97.60
2867;DHT22;1441;48.886;8.728;2023-04-25T00:13:49;8.70;98.20
2867;DHT22;1441;48.886;8.728;2023-04-25T00:16:18;8.70;98.10
2867;DHT22;1441;48.886;8.728;2023-04-25T00:18:43;8.70;98.60
2867;DHT22;1441;48.886;8.728;2023-04-25T00:21:11;8.70;98.70
2867;DHT22;1441;48.886;8.728;2023-04-25T00:23:37;8.70;98.80
2867;DHT22;1441;48.886;8.728;2023-04-25T00:26:04;8.70;98.80
2867;DHT22;1441;48.886;8.728;2023-04-25T00:28:30;8.70;98.70
2867;DHT22;1441;48.886;8.728;2023-04-25T00:30:55;8.80;98.20
2867;DHT22;1441;48.886;8.728;2023-04-25T00:33:21;8.80;98.40
2867;DHT22;1441;48.886;8.728;2023-04-25T00:35:46;8.80;98.30
2867;DHT22;1441;48.886;8.728;2023-04-25T00:38:12;8.80;98.30
2867;DHT22;1441;48.886;8.728;2023-04-25T00:40:38;8.80;98.40
2867;DHT22;1441;48.886;8.728;2023-04-25T00:43:04;8.80;98.20
2867;DHT22;1441;48.886;8.728;2023-04-25T00:45:30;8.80;98.10
2867;DHT22;1441;48.886;8.728;2023-04-25T00:47:56;8.90;98.20
2867;DHT22;1441;48.886;8.728;2023-04-25T00:50:22;8.80;98.20
2867;DHT22;1441;48.886;8.728;2023-04-25T00:52:48;8.70;98.30
2867;DHT22;1441;48.886;8.728;2023-04-25T00:55:14;8.70;97.70
2867;DHT22;1441;48.886;8.728;2023-04-25T00:57:41;8.60;97.80
2867;DHT22;1441;48.886;8.728;2023-04-25T01:00:07;8.50;97.70
2867;DHT22;1441;48.886;8.728;2023-04-25T01:02:35;8.50;97.60
2867;DHT22;1441;48.886;8.728;2023-04-25T01:05:01;8.50;98.00
2867;DHT22;1441;48.886;8.728;2023-04-25T01:07:27;8.50;97.70
2867;DHT22;1441;48.886;8.728;2023-04-25T01:09:52;8.50;97.60
2867;DHT22;1441;48.886;8.728;2023-04-25T01:12:18;8.50;97.90
2867;DHT22;1441;48.886;8.728;2023-04-25T01:14:44;8.50;97.80
2867;DHT22;1441;48.886;8.728;2023-04-25T01:17:10;8.50;98.10
2867;DHT22;1441;48.886;8.728;2023-04-25T01:19:37;8.60;98.60
2867;DHT22;1441;48.886;8.728;2023-04-25T01:22:03;8.60;98.80
2867;DHT22;1441;48.886;8.728;2023-04-25T01:24:29;8.60;99.60
2867;DHT22;1441;48.886;8.728;2023-04-25T01:26:56;8.60;99.90
2867;DHT22;1441;48.886;8.728;2023-04-25T01:29:23;8.60;99.90
2867;DHT22;1441;48.886;8.728;2023-04-25T01:31:51;8.60;99.90
2867;DHT22;1441;48.886;8.728;2023-04-25T01:34:17;8.60;99.90
2867;DHT22;1441;48.886;8.728;2023-04-25T01:36:42;8.50;99.90
2867;DHT22;1441;48.886;8.728;2023-04-25T01:39:09;8.50;99.90
2867;DHT22;1441;48.886;8.728;2023-04-25T01:41:34;8.50;99.90
2867;DHT22;1441;48.886;8.728;2023-04-25T01:44:00;8.50;99.90
2867;DHT22;1441;48.886;8.728;2023-04-25T01:46:26;8.50;99.90
2867;DHT22;1441;48.886;8.728;2023-04-25T01:48:52;8.50;99.90
2867;DHT22;1441;48.886;8.728;2023-04-25T01:51:18;8.50;99.90
2867;DHT22;1441;48.886;8.728;2023-04-25T01:53:44;8.40;99.90
2867;DHT22;1441;48.886;8.728;2023-04-25T01:56:10;8.20;99.90
2867;DHT22;1441;48.886;8.728;2023-04-25T01:58:35;8.10;99.90
2867;DHT22;1441;48.886;8.728;2023-04-25T02:01:01;8.10;99.90
2867;DHT22;1441;48.886;8.728;2023-04-25T02:03:27;8.00;99.90
2867;DHT22;1441;48.886;8.728;2023-04-25T02:05:52;8.10;99.90
2867;DHT22;1441;48.886;8.728;2023-04-25T02:08:18;8.10;99.90
2867;DHT22;1441;48.886;8.728;2023-04-25T02:10:44;8.10;99.90
2867;DHT22;1441;48.886;8.728;2023-04-25T02:13:09;8.20;99.90
2867;DHT22;1441;48.886;8.728;2023-04-25T02:15:35;8.20;99.90
2867;DHT22;1441;48.886;8.728;2023-04-25T02:18:01;8.20;99.90
2867;DHT22;1441;48.886;8.728;2023-04-25T02:20:28;8.10;99.90
2867;DHT22;1441;48.886;8.728;2023-04-25T02:22:54;8.10;99.90
2867;DHT22;1441;48.886;8.728;2023-04-25T02:25:20;8.10;99.90
2867;DHT22;1441;48.886;8.728;2023-04-25T02:27:47;8.10;99.90
2867;DHT22;1441;48.886;8.728;2023-04-25T02:30:12;8.10;99.90
2867;DHT22;1441;48.886;8.728;2023-04-25T02:32:39;8.10;99.90
2867;DHT22;1441;48.886;8.728;2023-04-25T02:35:05;8.10;99.90
2867;DHT22;1441;48.886;8.728;2023-04-25T02:37:32;8.20;99.90
2867;DHT22;1441;48.886;8.728;2023-04-25T02:39:58;8.10;99.90
2867;DHT22;1441;48.886;8.728;2023-04-25T02:42:23;8.10;99.90
2867;DHT22;1441;48.886;8.728;2023-04-25T02:44:49;8.20;99.90
2867;DHT22;1441;48.886;8.728;2023-04-25T02:47:15;8.20;99.90
2867;DHT22;1441;48.886;8.728;2023-04-25T02:49:40;8.10;99.90
2867;DHT22;1441;48.886;8.728;2023-04-25T02:52:06;8.10;99.90
2867;DHT22;1441;48.886;8.728;2023-04-25T02:54:31;8.10;99.90
2867;DHT22;1441;48.886;8.728;2023-04-25T02:56:57;8.20;99.90
2867;DHT22;1441;48.886;8.728;2023-04-25T02:59:23;8.20;99.90
2867;DHT22;1441;48.886;8.728;2023-04-25T03:01:48;8.20;99.90
2867;DHT22;1441;48.886;8.728;2023-04-25T03:04:14;8.10;99.90
2867;DHT22;1441;48.886;8.728;2023-04-25T03:06:39;8.10;99.90
2867;DHT22;1441;48.886;8.728;2023-04-25T03:09:05;8.10;99.90
2867;DHT22;1441;48.886;8.728;2023-04-25T03:11:30;8.10;99.90
2867;DHT22;1441;48.886;8.728;2023-04-25T03:13:56;8.20;99.90
2867;DHT22;1441;48.886;8.728;2023-04-25T03:16:22;8.20;99.90
2867;DHT22;1441;48.886;8.728;2023-04-25T03:18:47;8.20;99.90
2867;DHT22;1441;48.886;8.728;2023-04-25T03:21:13;8.30;99.90
2867;DHT22;1441;48.886;8.728;2023-04-25T03:23:38;8.20;99.90
2867;DHT22;1441;48.886;8.728;2023-04-25T03:26:04;8.20;99.90
2867;DHT22;1441;48.886;8.728;2023-04-25T03:28:30;8.20;99.90
2867;DHT22;1441;48.886;8.728;2023-04-25T03:30:55;8.20;99.90
2867;DHT22;1441;48.886;8.728;2023-04-25T03:33:21;8.20;99.90
2867;DHT22;1441;48.886;8.728;2023-04-25T03:35:47;8.10;99.90
2867;DHT22;1441;48.886;8.728;2023-04-25T03:38:13;8.10;99.90
2867;DHT22;1441;48.886;8.728;2023-04-25T03:40:38;8.00;99.90
2867;DHT22;1441;48.886;8.728;2023-04-25T03:43:04;8.00;99.90
2867;DHT22;1441;48.886;8.728;2023-04-25T03:45:30;7.90;99.90
2867;DHT22;1441;48.886;8.728;2023-04-25T03:47:55;7.90;99.90
2867;DHT22;1441;48.886;8.728;2023-04-25T03:50:21;7.80;99.90
2867;DHT22;1441;48.886;8.728;2023-04-25T03:52:47;7.80;99.90
2867;DHT22;1441;48.886;8.728;2023-04-25T03:55:12;7.80;99.90
2867;DHT22;1441;48.886;8.728;2023-04-25T03:57:38;7.80;99.90
2867;DHT22;1441;48.886;8.728;2023-04-25T04:00:04;7.80;99.90
2867;DHT22;1441;48.886;8.728;2023-04-25T04:02:30;7.90;99.90
2867;DHT22;1441;48.886;8.728;2023-04-25T04:04:55;7.90;99.90
2867;DHT22;1441;48.886;8.728;2023-04-25T04:07:22;7.90;99.90
2867;DHT22;1441;48.886;8.728;2023-04-25T04:09:47;7.90;99.90
2867;DHT22;1441;48.886;8.728;2023-04-25T04:12:13;7.90;99.90
2867;DHT22;1441;48.886;8.728;2023-04-25T04:14:38;7.90;99.90
2867;DHT22;1441;48.886;8.728;2023-04-25T04:17:04;7.90;99.90
2867;DHT22;1441;48.886;8.728;2023-04-25T04:19:31;7.90;99.90
2867;DHT22;1441;48.886;8.728;2023-04-25T04:21:56;7.90;99.90
2867;DHT22;1441;48.886;8.728;2023-04-25T04:24:22;7.90;99.90
2867;DHT22;1441;48.886;8.728;2023-04-25T04:26:47;7.90;99.90
2867;DHT22;1441;48.886;8.728;2023-04-25T04:29:13;7.90;99.90
2867;DHT22;1441;48.886;8.728;2023-04-25T04:31:49;7.90;99.90
2867;DHT22;1441;48.886;8.728;2023-04-25T04:34:18;7.80;99.90
2867;DHT22;1441;48.886;8.728;2023-04-25T04:36:45;7.80;99.90
2867;DHT22;1441;48.886;8.728;2023-04-25T04:39:12;7.60;99.90
2867;DHT22;1441;48.886;8.728;2023-04-25T04:41:38;7.60;99.90
2867;DHT22;1441;48.886;8.728;2023-04-25T04:44:04;7.50;99.90
2867;DHT22;1441;48.886;8.728;2023-04-25T04:46:32;7.40;99.90
2867;DHT22;1441;48.886;8.728;2023-04-25T04:49:05;7.40;99.90
2867;DHT22;1441;48.886;8.728;2023-04-25T04:51:31;7.40;99.90
2867;DHT22;1441;48.886;8.728;2023-04-25T04:53:57;7.30;99.90
2867;DHT22;1441;48.886;8.728;2023-04-25T04:56:24;7.30;99.90
2867;DHT22;1441;48.886;8.728;2023-04-25T04:58:50;7.20;99.90
2867;DHT22;1441;48.886;8.728;2023-04-25T05:01:16;7.30;99.90
2867;DHT22;1441;48.886;8.728;2023-04-25T05:03:42;7.20;99.90
2867;DHT22;1441;48.886;8.728;2023-04-25T05:06:07;7.30;99.90
2867;DHT22;1441;48.886;8.728;2023-04-25T05:08:34;7.30;99.90
2867;DHT22;1441;48.886;8.728;2023-04-25T05:10:59;7.40;99.90
2867;DHT22;1441;48.886;8.728;2023-04-25T05:13:25;7.40;99.90
2867;DHT22;1441;48.886;8.728;2023-04-25T05:15:50;7.30;99.90
2867;DHT22;1441;48.886;8.728;2023-04-25T05:18:16;7.40;99.90
2867;DHT22;1441;48.886;8.728;2023-04-25T05:20:42;7.40;99.90
2867;DHT22;1441;48.886;8.728;2023-04-25T05:23:07;7.50;99.90
2867;DHT22;1441;48.886;8.728;2023-04-25T05:25:33;7.50;99.90
2867;DHT22;1441;48.886;8.728;2023-04-25T05:27:58;7.60;99.90
2867;DHT22;1441;48.886;8.728;2023-04-25T05:30:24;7.60;99.90
2867;DHT22;1441;48.886;8.728;2023-04-25T05:32:50;7.50;99.90
2867;DHT22;1441;48.886;8.728;2023-04-25T05:35:16;7.50;99.90
2867;DHT22;1441;48.886;8.728;2023-04-25T05:37:41;7.50;99.90
2867;DHT22;1441;48.886;8.728;2023-04-25T05:40:08;7.50;99.90
2867;DHT22;1441;48.886;8.728;2023-04-25T05:42:34;7.60;99.90
2867;DHT22;1441;48.886;8.728;2023-04-25T05:44:59;7.60;99.90
2867;DHT22;1441;48.886;8.728;2023-04-25T05:47:26;7.60;99.90
2867;DHT22;1441;48.886;8.728;2023-04-25T05:49:52;7.80;99.90
2867;DHT22;1441;48.886;8.728;2023-04-25T05:52:17;7.90;99.90
2867;DHT22;1441;48.886;8.728;2023-04-25T05:54:43;8.10;99.90
2867;DHT22;1441;48.886;8.728;2023-04-25T05:57:08;8.10;99.90
2867;DHT22;1441;48.886;8.728;2023-04-25T05:59:34;8.30;99.90
2867;DHT22;1441;48.886;8.728;2023-04-25T06:02:00;8.40;99.90
2867;DHT22;1441;48.886;8.728;2023-04-25T06:04:26;8.20;99.90
2867;DHT22;1441;48.886;8.728;2023-04-25T06:06:51;8.10;99.90
2867;DHT22;1441;48.886;8.728;2023-04-25T06:09:17;8.10;99.90
2867;DHT22;1441;48.886;8.728;2023-04-25T06:11:42;8.30;99.90
2867;DHT22;1441;48.886;8.728;2023-04-25T06:14:08;8.50;99.90
2867;DHT22;1441;48.886;8.728;2023-04-25T06:16:33;8.50;99.90
2867;DHT22;1441;48.886;8.728;2023-04-25T06:18:59;8.30;99.90
2867;DHT22;1441;48.886;8.728;2023-04-25T06:21:25;8.10;99.90
2867;DHT22;1441;48.886;8.728;2023-04-25T06:23:51;8.00;99.90
2867;DHT22;1441;48.886;8.728;2023-04-25T06:26:16;8.00;99.90
2867;DHT22;1441;48.886;8.728;2023-04-25T06:28:42;8.00;99.90
2867;DHT22;1441;48.886;8.728;2023-04-25T06:31:07;8.00;99.90
2867;DHT22;1441;48.886;8.728;2023-04-25T06:33:33;8.00;99.90
2867;DHT22;1441;48.886;8.728;2023-04-25T06:35:59;8.00;99.90
2867;DHT22;1441;48.886;8.728;2023-04-25T06:38:24;8.00;99.90
2867;DHT22;1441;48.886;8.728;2023-04-25T06:40:50;8.00;99.90
2867;DHT22;1441;48.886;8.728;2023-04-25T06:43:15;8.00;99.90
2867;DHT22;1441;48.886;8.728;2023-04-25T06:45:41;8.00;99.90
2867;DHT22;1441;48.886;8.728;2023-04-25T06:48:07;8.00;99.90
2867;DHT22;1441;48.886;8.728;2023-04-25T06:50:33;8.00;99.90
2867;DHT22;1441;48.886;8.728;2023-04-25T06:52:59;8.10;99.90
2867;DHT22;1441;48.886;8.728;2023-04-25T06:55:26;8.10;99.90
2867;DHT22;1441;48.886;8.728;2023-04-25T06:57:55;8.10;99.90
2867;DHT22;1441;48.886;8.728;2023-04-25T07:00:20;8.20;99.90
2867;DHT22;1441;48.886;8.728;2023-04-25T07:02:46;8.20;99.90
2867;DHT22;1441;48.886;8.728;2023-04-25T07:05:12;8.20;99.90
2867;DHT22;1441;48.886;8.728;2023-04-25T07:07:37;8.20;99.90
2867;DHT22;1441;48.886;8.728;2023-04-25T07:10:03;8.20;99.90
2867;DHT22;1441;48.886;8.728;2023-04-25T07:12:29;8.20;99.90
2867;DHT22;1441;48.886;8.728;2023-04-25T07:14:54;8.20;99.90
2867;DHT22;1441;48.886;8.728;2023-04-25T07:17:20;8.20;99.90
2867;DHT22;1441;48.886;8.728;2023-04-25T07:19:45;8.10;99.90
2867;DHT22;1441;48.886;8.728;2023-04-25T07:22:11;8.10;99.90
2867;DHT22;1441;48.886;8.728;2023-04-25T07:24:36;8.10;99.90
2867;DHT22;1441;48.886;8.728;2023-04-25T07:27:02;8.10;99.90
2867;DHT22;1441;48.886;8.728;2023-04-25T07:29:27;8.20;99.90
2867;DHT22;1441;48.886;8.728;2023-04-25T07:31:53;8.20;99.90
2867;DHT22;1441;48.886;8.728;2023-04-25T07:34:19;8.20;99.90
2867;DHT22;1441;48.886;8.728;2023-04-25T07:36:45;8.20;99.90
2867;DHT22;1441;48.886;8.728;2023-04-25T07:39:11;8.20;99.90
2867;DHT22;1441;48.886;8.728;2023-04-25T07:41:36;8.20;99.90
2867;DHT22;1441;48.886;8.728;2023-04-25T07:44:02;8.20;99.90
2867;DHT22;1441;48.886;8.728;2023-04-25T07:46:27;8.20;99.90
2867;DHT22;1441;48.886;8.728;2023-04-25T07:48:53;8.20;99.90
2867;DHT22;1441;48.886;8.728;2023-04-25T07:51:18;8.30;99.90
2867;DHT22;1441;48.886;8.728;2023-04-25T07:53:45;8.30;99.90
2867;DHT22;1441;48.886;8.728;2023-04-25T07:56:11;8.20;99.90
2867;DHT22;1441;48.886;8.728;2023-04-25T07:58:37;8.20;99.90
2867;DHT22;1441;48.886;8.728;2023-04-25T08:01:02;8.20;99.90
2867;DHT22;1441;48.886;8.728;2023-04-25T08:03:28;8.20;99.90
2867;DHT22;1441;48.886;8.728;2023-04-25T08:05:54;8.10;99.90
2867;DHT22;1441;48.886;8.728;2023-04-25T08:08:19;8.10;99.90
2867;DHT22;1441;48.886;8.728;2023-04-25T08:10:45;8.10;99.90
2867;DHT22;1441;48.886;8.728;2023-04-25T08:13:10;8.10;99.90
2867;DHT22;1441;48.886;8.728;2023-04-25T08:15:36;8.00;99.90
2867;DHT22;1441;48.886;8.728;2023-04-25T08:18:01;7.90;99.90
2867;DHT22;1441;48.886;8.728;2023-04-25T08:20:27;7.90;99.90
2867;DHT22;1441;48.886;8.728;2023-04-25T08:22:52;7.90;99.90
2867;DHT22;1441;48.886;8.728;2023-04-25T08:25:18;7.80;99.90
2867;DHT22;1441;48.886;8.728;2023-04-25T08:27:44;7.80;99.90
2867;DHT22;1441;48.886;8.728;2023-04-25T08:30:10;7.80;99.90
2867;DHT22;1441;48.886;8.728;2023-04-25T08:32:35;7.80;99.90
2867;DHT22;1441;48.886;8.728;2023-04-25T08:35:03;7.80;99.90
2867;DHT22;1441;48.886;8.728;2023-04-25T08:37:29;7.90;99.90
2867;DHT22;1441;48.886;8.728;2023-04-25T08:39:55;7.90;99.90
2867;DHT22;1441;48.886;8.728;2023-04-25T08:42:21;7.90;99.90
2867;DHT22;1441;48.886;8.728;2023-04-25T08:44:48;7.90;99.90
2867;DHT22;1441;48.886;8.728;2023-04-25T08:47:14;7.80;99.90
2867;DHT22;1441;48.886;8.728;2023-04-25T08:49:45;7.80;99.90
2867;DHT22;1441;48.886;8.728;2023-04-25T08:52:13;7.70;99.90
2867;DHT22;1441;48.886;8.728;2023-04-25T08:54:42;7.80;99.90
2867;DHT22;1441;48.886;8.728;2023-04-25T08:57:09;7.80;99.90
2867;DHT22;1441;48.886;8.728;2023-04-25T08:59:35;7.80;99.90
2867;DHT22;1441;48.886;8.728;2023-04-25T09:02:03;7.90;99.90
2867;DHT22;1441;48.886;8.728;2023-04-25T09:04:31;7.90;99.90
2867;DHT22;1441;48.886;8.728;2023-04-25T09:06:56;7.90;99.90
2867;DHT22;1441;48.886;8.728;2023-04-25T09:09:23;7.90;99.90
2867;DHT22;1441;48.886;8.728;2023-04-25T09:11:49;7.90;99.90
2867;DHT22;1441;48.886;8.728;2023-04-25T09:14:22;7.90;99.90
2867;DHT22;1441;48.886;8.728;2023-04-25T09:19:32;7.90;99.90
2867;DHT22;1441;48.886;8.728;2023-04-25T09:22:02;8.00;99.90
2867;DHT22;1441;48.886;8.728;2023-04-25T09:24:35;8.00;99.90
2867;DHT22;1441;48.886;8.728;2023-04-25T09:27:04;8.00;99.90
2867;DHT22;1441;48.886;8.728;2023-04-25T09:29:34;8.00;99.90
2867;DHT22;1441;48.886;8.728;2023-04-25T09:32:20;8.00;99.90
2867;DHT22;1441;48.886;8.728;2023-04-25T09:34:53;7.90;99.90
2867;DHT22;1441;48.886;8.728;2023-04-25T09:37:21;7.90;99.90
2867;DHT22;1441;48.886;8.728;2023-04-25T09:39:48;8.00;99.90
2867;DHT22;1441;48.886;8.728;2023-04-25T09:42:15;8.00;99.90
2867;DHT22;1441;48.886;8.728;2023-04-25T09:44:45;8.10;99.90
2867;DHT22;1441;48.886;8.728;2023-04-25T09:47:15;8.10;99.90
2867;DHT22;1441;48.886;8.728;2023-04-25T09:49:43;8.00;99.90
2867;DHT22;1441;48.886;8.728;2023-04-25T09:52:13;8.00;99.90
2867;DHT22;1441;48.886;8.728;2023-04-25T09:54:38;8.00;99.90
2867;DHT22;1441;48.886;8.728;2023-04-25T09:57:12;8.00;99.90
2867;DHT22;1441;48.886;8.728;2023-04-25T09:59:42;7.90;99.90
2867;DHT22;1441;48.886;8.728;2023-04-25T10:02:08;7.90;99.90
2867;DHT22;1441;48.886;8.728;2023-04-25T10:04:35;7.80;99.90
2867;DHT22;1441;48.886;8.728;2023-04-25T10:07:03;7.90;99.90
2867;DHT22;1441;48.886;8.728;2023-04-25T10:09:31;8.00;99.90
2867;DHT22;1441;48.886;8.728;2023-04-25T10:11:59;8.00;99.90
2867;DHT22;1441;48.886;8.728;2023-04-25T10:14:26;7.80;99.90
2867;DHT22;1441;48.886;8.728;2023-04-25T10:16:53;7.80;99.90
2867;DHT22;1441;48.886;8.728;2023-04-25T10:19:22;7.70;99.90
2867;DHT22;1441;48.886;8.728;2023-04-25T10:22:04;7.80;99.90
2867;DHT22;1441;48.886;8.728;2023-04-25T10:24:31;7.80;99.90
2867;DHT22;1441;48.886;8.728;2023-04-25T10:26:58;7.80;99.90
2867;DHT22;1441;48.886;8.728;2023-04-25T10:29:27;7.90;99.90
2867;DHT22;1441;48.886;8.728;2023-04-25T10:31:53;8.00;99.90
2867;DHT22;1441;48.886;8.728;2023-04-25T10:34:24;8.00;99.90
2867;DHT22;1441;48.886;8.728;2023-04-25T10:36:51;8.10;99.90
2867;DHT22;1441;48.886;8.728;2023-04-25T10:39:25;8.00;99.90
2867;DHT22;1441;48.886;8.728;2023-04-25T10:41:56;8.10;99.90
2867;DHT22;1441;48.886;8.728;2023-04-25T10:44:22;8.10;99.90
2867;DHT22;1441;48.886;8.728;2023-04-25T10:46:47;8.10;99.90
2867;DHT22;1441;48.886;8.728;2023-04-25T10:49:48;8.20;99.90
2867;DHT22;1441;48.886;8.728;2023-04-25T10:52:28;8.30;99.90
2867;DHT22;1441;48.886;8.728;2023-04-25T10:54:56;8.10;99.90
2867;DHT22;1441;48.886;8.728;2023-04-25T10:57:29;8.10;99.90
2867;DHT22;1441;48.886;8.728;2023-04-25T11:02:31;8.10;99.90
2867;DHT22;1441;48.886;8.728;2023-04-25T11:04:56;7.80;99.90
2867;DHT22;1441;48.886;8.728;2023-04-25T11:07:49;7.70;99.90
2867;DHT22;1441;48.886;8.728;2023-04-25T11:10:16;7.60;99.90
2867;DHT22;1441;48.886;8.728;2023-04-25T11:12:41;7.60;99.90
2867;DHT22;1441;48.886;8.728;2023-04-25T11:15:07;7.60;99.90
2867;DHT22;1441;48.886;8.728;2023-04-25T11:17:33;7.50;99.90
2867;DHT22;1441;48.886;8.728;2023-04-25T11:19:59;7.60;99.90
2867;DHT22;1441;48.886;8.728;2023-04-25T11:22:27;7.60;99.90
2867;DHT22;1441;48.886;8.728;2023-04-25T11:24:53;7.80;99.90
2867;DHT22;1441;48.886;8.728;2023-04-25T11:27:19;7.90;99.90
2867;DHT22;1441;48.886;8.728;2023-04-25T11:29:45;7.90;99.90
2867;DHT22;1441;48.886;8.728;2023-04-25T11:32:14;7.90;99.90
2867;DHT22;1441;48.886;8.728;2023-04-25T11:34:43;8.00;99.90
2867;DHT22;1441;48.886;8.728;2023-04-25T11:37:10;8.10;99.90
2867;DHT22;1441;48.886;8.728;2023-04-25T11:39:37;8.20;99.90
2867;DHT22;1441;48.886;8.728;2023-04-25T11:42:04;8.10;99.90
2867;DHT22;1441;48.886;8.728;2023-04-25T11:44:31;8.10;99.90
2867;DHT22;1441;48.886;8.728;2023-04-25T11:46:56;8.20;99.90
2867;DHT22;1441;48.886;8.728;2023-04-25T11:49:22;8.30;99.90
2867;DHT22;1441;48.886;8.728;2023-04-25T11:51:50;8.40;99.90
2867;DHT22;1441;48.886;8.728;2023-04-25T11:54:15;8.50;99.90
2867;DHT22;1441;48.886;8.728;2023-04-25T11:56:45;8.70;99.90
2867;DHT22;1441;48.886;8.728;2023-04-25T11:59:11;8.90;99.90
2867;DHT22;1441;48.886;8.728;2023-04-25T12:01:41;9.00;99.90
2867;DHT22;1441;48.886;8.728;2023-04-25T12:04:16;9.10;99.90
2867;DHT22;1441;48.886;8.728;2023-04-25T12:06:43;9.10;99.90
2867;DHT22;1441;48.886;8.728;2023-04-25T12:09:12;9.20;99.90
2867;DHT22;1441;48.886;8.728;2023-04-25T12:11:48;9.30;99.90
2867;DHT22;1441;48.886;8.728;2023-04-25T12:14:26;9.20;99.90
2867;DHT22;1441;48.886;8.728;2023-04-25T12:16:56;9.10;99.90
2867;DHT22;1441;48.886;8.728;2023-04-25T12:19:25;8.90;99.90
2867;DHT22;1441;48.886;8.728;2023-04-25T12:21:51;8.80;99.90
2867;DHT22;1441;48.886;8.728;2023-04-25T12:24:25;8.80;99.90
2867;DHT22;1441;48.886;8.728;2023-04-25T12:27:05;8.70;99.90
2867;DHT22;1441;48.886;8.728;2023-04-25T12:29:33;8.80;99.90
2867;DHT22;1441;48.886;8.728;2023-04-25T12:31:59;8.80;99.90
2867;DHT22;1441;48.886;8.728;2023-04-25T12:34:27;8.90;99.90
2867;DHT22;1441;48.886;8.728;2023-04-25T12:36:53;9.00;99.90
2867;DHT22;1441;48.886;8.728;2023-04-25T12:39:23;9.00;99.90
2867;DHT22;1441;48.886;8.728;2023-04-25T12:41:52;9.00;99.90
2867;DHT22;1441;48.886;8.728;2023-04-25T12:44:19;9.00;99.90
2867;DHT22;1441;48.886;8.728;2023-04-25T12:46:45;8.90;99.90
2867;DHT22;1441;48.886;8.728;2023-04-25T12:49:11;8.90;99.90
2867;DHT22;1441;48.886;8.728;2023-04-25T12:51:37;9.00;99.90
2867;DHT22;1441;48.886;8.728;2023-04-25T12:54:05;9.00;99.90
2867;DHT22;1441;48.886;8.728;2023-04-25T12:56:31;9.00;99.90
2867;DHT22;1441;48.886;8.728;2023-04-25T12:58:57;8.90;99.90
2867;DHT22;1441;48.886;8.728;2023-04-25T13:01:23;8.90;99.90
2867;DHT22;1441;48.886;8.728;2023-04-25T13:03:50;8.90;99.90
2867;DHT22;1441;48.886;8.728;2023-04-25T13:06:16;8.90;99.90
2867;DHT22;1441;48.886;8.728;2023-04-25T13:08:42;8.80;99.90
2867;DHT22;1441;48.886;8.728;2023-04-25T13:11:08;8.90;99.90
2867;DHT22;1441;48.886;8.728;2023-04-25T13:13:34;9.00;99.90
2867;DHT22;1441;48.886;8.728;2023-04-25T13:16:04;9.10;99.90
2867;DHT22;1441;48.886;8.728;2023-04-25T13:18:33;9.30;99.90
2867;DHT22;1441;48.886;8.728;2023-04-25T13:20:59;9.30;99.90
2867;DHT22;1441;48.886;8.728;2023-04-25T13:23:26;9.30;99.90
2867;DHT22;1441;48.886;8.728;2023-04-25T13:25:52;9.20;99.90
2867;DHT22;1441;48.886;8.728;2023-04-25T13:28:18;9.30;99.90
2867;DHT22;1441;48.886;8.728;2023-04-25T13:30:44;9.30;99.90
2867;DHT22;1441;48.886;8.728;2023-04-25T13:33:09;9.50;99.90
2867;DHT22;1441;48.886;8.728;2023-04-25T13:35:36;9.60;99.90
2867;DHT22;1441;48.886;8.728;2023-04-25T13:38:02;9.70;99.90
2867;DHT22;1441;48.886;8.728;2023-04-25T13:40:27;9.80;99.90
2867;DHT22;1441;48.886;8.728;2023-04-25T13:42:53;9.80;99.90
2867;DHT22;1441;48.886;8.728;2023-04-25T13:45:20;9.90;99.90
2867;DHT22;1441;48.886;8.728;2023-04-25T13:47:45;10.00;99.70
2867;DHT22;1441;48.886;8.728;2023-04-25T13:50:12;10.00;99.60
2867;DHT22;1441;48.886;8.728;2023-04-25T13:52:39;10.10;98.70
2867;DHT22;1441;48.886;8.728;2023-04-25T13:55:05;10.10;97.90
2867;DHT22;1441;48.886;8.728;2023-04-25T13:57:32;10.00;97.20
2867;DHT22;1441;48.886;8.728;2023-04-25T13:59:58;10.00;97.70
2867;DHT22;1441;48.886;8.728;2023-04-25T14:02:24;10.00;98.30
2867;DHT22;1441;48.886;8.728;2023-04-25T14:04:50;10.10;98.90
2867;DHT22;1441;48.886;8.728;2023-04-25T14:07:15;10.30;98.40
2867;DHT22;1441;48.886;8.728;2023-04-25T14:09:41;10.30;97.40
2867;DHT22;1441;48.886;8.728;2023-04-25T14:12:07;10.10;97.00
2867;DHT22;1441;48.886;8.728;2023-04-25T14:14:33;10.10;97.60
2867;DHT22;1441;48.886;8.728;2023-04-25T14:16:58;10.10;98.10
2867;DHT22;1441;48.886;8.728;2023-04-25T14:19:24;10.10;98.40
2867;DHT22;1441;48.886;8.728;2023-04-25T14:21:50;10.10;97.80
2867;DHT22;1441;48.886;8.728;2023-04-25T14:24:15;10.10;97.60
2867;DHT22;1441;48.886;8.728;2023-04-25T14:26:41;10.10;97.20
2867;DHT22;1441;48.886;8.728;2023-04-25T14:29:08;10.00;96.60
2867;DHT22;1441;48.886;8.728;2023-04-25T14:31:34;10.10;96.40
2867;DHT22;1441;48.886;8.728;2023-04-25T14:34:01;10.10;96.00
2867;DHT22;1441;48.886;8.728;2023-04-25T14:36:28;10.20;95.80
2867;DHT22;1441;48.886;8.728;2023-04-25T14:38:54;10.60;97.00
2867;DHT22;1441;48.886;8.728;2023-04-25T14:41:20;11.00;94.80
2867;DHT22;1441;48.886;8.728;2023-04-25T14:43:46;11.30;93.30
2867;DHT22;1441;48.886;8.728;2023-04-25T14:46:12;11.60;92.90
2867;DHT22;1441;48.886;8.728;2023-04-25T14:48:38;11.60;90.20
2867;DHT22;1441;48.886;8.728;2023-04-25T14:51:04;11.70;91.40
2867;DHT22;1441;48.886;8.728;2023-04-25T14:53:31;11.70;88.90
2867;DHT22;1441;48.886;8.728;2023-04-25T14:55:57;11.70;88.90
2867;DHT22;1441;48.886;8.728;2023-04-25T14:58:23;11.90;89.40
2867;DHT22;1441;48.886;8.728;2023-04-25T15:00:48;11.90;89.80
2867;DHT22;1441;48.886;8.728;2023-04-25T15:03:14;11.80;88.70
2867;DHT22;1441;48.886;8.728;2023-04-25T15:05:41;11.70;88.50
2867;DHT22;1441;48.886;8.728;2023-04-25T15:08:08;11.70;89.60
2867;DHT22;1441;48.886;8.728;2023-04-25T15:10:34;11.70;88.20
2867;DHT22;1441;48.886;8.728;2023-04-25T15:12:59;11.60;89.00
2867;DHT22;1441;48.886;8.728;2023-04-25T15:15:26;11.50;90.10
2867;DHT22;1441;48.886;8.728;2023-04-25T15:17:52;11.30;89.90
2867;DHT22;1441;48.886;8.728;2023-04-25T15:20:18;11.30;90.70
2867;DHT22;1441;48.886;8.728;2023-04-25T15:22:44;11.20;90.40
2867;DHT22;1441;48.886;8.728;2023-04-25T15:25:14;11.20;89.90
2867;DHT22;1441;48.886;8.728;2023-04-25T15:27:41;11.20;90.20
2867;DHT22;1441;48.886;8.728;2023-04-25T15:30:12;11.30;90.10
2867;DHT22;1441;48.886;8.728;2023-04-25T15:32:41;11.30;89.90
2867;DHT22;1441;48.886;8.728;2023-04-25T15:35:07;11.30;90.30
2867;DHT22;1441;48.886;8.728;2023-04-25T15:37:33;11.30;88.90
2867;DHT22;1441;48.886;8.728;2023-04-25T15:42:36;11.20;88.10
2867;DHT22;1441;48.886;8.728;2023-04-25T15:45:06;11.10;90.20
2867;DHT22;1441;48.886;8.728;2023-04-25T15:47:33;11.20;90.20
2867;DHT22;1441;48.886;8.728;2023-04-25T15:49:59;11.40;89.30
2867;DHT22;1441;48.886;8.728;2023-04-25T15:52:25;11.50;90.30
2867;DHT22;1441;48.886;8.728;2023-04-25T15:54:52;11.40;90.40
2867;DHT22;1441;48.886;8.728;2023-04-25T15:57:17;11.40;90.40
2867;DHT22;1441;48.886;8.728;2023-04-25T15:59:43;11.40;90.70
2867;DHT22;1441;48.886;8.728;2023-04-25T16:02:09;11.30;91.20
2867;DHT22;1441;48.886;8.728;2023-04-25T16:04:35;11.20;89.70
2867;DHT22;1441;48.886;8.728;2023-04-25T16:07:01;11.10;89.70
2867;DHT22;1441;48.886;8.728;2023-04-25T16:09:28;11.10;90.10
2867;DHT22;1441;48.886;8.728;2023-04-25T16:11:53;11.20;88.80
2867;DHT22;1441;48.886;8.728;2023-04-25T16:14:19;11.30;90.00
2867;DHT22;1441;48.886;8.728;2023-04-25T16:16:45;11.20;89.90
2867;DHT22;1441;48.886;8.728;2023-04-25T16:19:10;11.20;90.40